| time (UTC) | temp F | wind direction | speed knots | gust knots | rain 1hr in | rain 24hr in | rain mn in | humidity % | barometer mb |
| 20260906233715 | 98 | 89 | 0.0 | 3.5 | 0.00 | 0.00 | 0.00 | 41 | 1011.6 |
| 20260906233215 | 99 | 116 | 0.0 | 2.6 | 0.00 | 0.00 | 0.00 | 40 | 1011.6 |
| 20260906232709 | 99 | 77 | 0.0 | 1.7 | 0.00 | 0.00 | 0.00 | 41 | 1011.6 |
| 20260906232159 | 99 | 103 | 1.7 | 1.7 | 0.00 | 0.00 | 0.00 | 40 | 1012.0 |
| 20260906231658 | 100 | 155 | 0.0 | 1.7 | 0.00 | 0.00 | 0.00 | 39 | 1011.9 |
| 20260906231154 | 100 | 105 | 1.7 | 1.7 | 0.00 | 0.00 | 0.00 | 39 | 1011.8 |
| 20260906230653 | 100 | 156 | 0.9 | 1.7 | 0.00 | 0.00 | 0.00 | 39 | 1011.9 |
| 20260906230148 | 100 | 116 | 0.0 | 0.9 | 0.00 | 0.00 | 0.00 | 38 | 1011.8 |
| 20260906225647 | 100 | 112 | 2.6 | 3.5 | 0.00 | 0.00 | 0.00 | 38 | 1011.8 |
| 20260906225143 | 101 | 111 | 0.0 | 1.7 | 0.00 | 0.00 | 0.00 | 36 | 1011.8 |
| 20260906224638 | 102 | 46 | 0.0 | 1.7 | 0.00 | 0.00 | 0.00 | 36 | 1011.9 |
| 20260906224135 | 101 | 154 | 0.0 | 1.7 | 0.00 | 0.00 | 0.00 | 38 | 1011.8 |
| 20260906223631 | 100 | 121 | 0.9 | 1.7 | 0.00 | 0.00 | 0.00 | 38 | 1011.9 |
| 20260906223130 | 101 | 66 | 1.7 | 1.7 | 0.00 | 0.00 | 0.00 | 38 | 1011.8 |
| 20260906222629 | 100 | 133 | 0.9 | 5.2 | 0.00 | 0.00 | 0.00 | 39 | 1011.8 |
| 20260906222127 | 101 | 40 | 1.7 | 1.7 | 0.00 | 0.00 | 0.00 | 39 | 1011.9 |
| 20260906221626 | 100 | 89 | 1.7 | 5.2 | 0.00 | 0.00 | 0.00 | 39 | 1011.9 |
| 20260906221121 | 101 | 79 | 0.0 | 2.6 | 0.00 | 0.00 | 0.00 | 38 | 1012.1 |
| 20260906220616 | 101 | 37 | 0.9 | 1.7 | 0.00 | 0.00 | 0.00 | 38 | 1012.1 |
| 20260906220112 | 101 | 52 | 0.9 | 4.3 | 0.00 | 0.00 | 0.00 | 39 | 1011.9 |
| 20260906215611 | 102 | 0 | 0.0 | 1.7 | 0.00 | 0.00 | 0.00 | 38 | 1012.0 |
| 20260906215109 | 100 | 16 | 1.7 | 1.7 | 0.00 | 0.00 | 0.00 | 39 | 1011.9 |
| 20260906214608 | 99 | 79 | 0.9 | 1.7 | 0.00 | 0.00 | 0.00 | 41 | 1012.1 |
| 20260906214103 | 99 | 20 | 0.9 | 2.6 | 0.00 | 0.00 | 0.00 | 41 | 1012.2 |
| 20260906213601 | 100 | 118 | 0.9 | 3.5 | 0.00 | 0.00 | 0.00 | 40 | 1012.1 |
| 20260906213056 | 101 | 105 | 0.0 | 1.7 | 0.00 | 0.00 | 0.00 | 39 | 1012.2 |
| 20260906212549 | 100 | 130 | 0.0 | 6.1 | 0.00 | 0.00 | 0.00 | 40 | 1012.4 |
| 20260906212045 | 100 | 107 | 0.9 | 2.6 | 0.00 | 0.00 | 0.00 | 40 | 1012.7 |
| 20260906211544 | 99 | 157 | 0.9 | 1.7 | 0.00 | 0.00 | 0.00 | 41 | 1012.5 |
| 20260906211040 | 102 | 8 | 0.0 | 2.6 | 0.00 | 0.00 | 0.00 | 39 | 1012.4 |
| 20260906210535 | 102 | 128 | 0.0 | 1.7 | 0.00 | 0.00 | 0.00 | 39 | 1012.6 |
| 20260906210035 | 102 | 119 | 0.0 | 2.6 | 0.00 | 0.00 | 0.00 | 39 | 1012.5 |
| 20260906205531 | 103 | 231 | 2.6 | 2.6 | 0.00 | 0.00 | 0.00 | 38 | 1012.6 |
| 20260906205027 | 101 | 153 | 0.9 | 1.7 | 0.00 | 0.00 | 0.00 | 40 | 1012.7 |
| 20260906204521 | 101 | 102 | 3.5 | 4.3 | 0.00 | 0.00 | 0.00 | 40 | 1012.7 |
| 20260906204021 | 101 | 67 | 1.7 | 4.3 | 0.00 | 0.00 | 0.00 | 40 | 1012.8 |
| 20260906203515 | 102 | 99 | 0.9 | 1.7 | 0.00 | 0.00 | 0.00 | 39 | 1012.9 |
| 20260906203016 | 101 | 353 | 1.7 | 1.7 | 0.00 | 0.00 | 0.00 | 39 | 1012.9 |
| 20260906202512 | 99 | 190 | 0.0 | 2.6 | 0.00 | 0.00 | 0.00 | 42 | 1013.1 |
| 20260906202008 | 99 | 118 | 0.9 | 1.7 | 0.00 | 0.00 | 0.00 | 43 | 1013.0 |
| 20260906201507 | 98 | 115 | 1.7 | 2.6 | 0.00 | 0.00 | 0.00 | 43 | 1013.2 |
| 20260906201007 | 100 | 249 | 0.0 | 4.3 | 0.00 | 0.00 | 0.00 | 41 | 1013.0 |
| 20260906200503 | 102 | 163 | 0.9 | 1.7 | 0.00 | 0.00 | 0.00 | 40 | 1013.2 |
| 20260906195958 | 102 | 196 | 0.0 | 2.6 | 0.00 | 0.00 | 0.00 | 40 | 1013.3 |
| 20260906195454 | 101 | 125 | 1.7 | 1.7 | 0.00 | 0.00 | 0.00 | 41 | 1013.3 |
| 20260906194950 | 102 | 159 | 0.9 | 1.7 | 0.00 | 0.00 | 0.00 | 40 | 1013.4 |
| 20260906194445 | 100 | 98 | 0.9 | 3.5 | 0.00 | 0.00 | 0.00 | 42 | 1013.5 |
| 20260906193941 | 100 | 68 | 0.0 | 3.5 | 0.00 | 0.00 | 0.00 | 43 | 1013.5 |
| 20260906193436 | 100 | 124 | 0.0 | 2.6 | 0.00 | 0.00 | 0.00 | 42 | 1013.5 |
| 20260906192931 | 100 | 203 | 0.0 | 2.6 | 0.00 | 0.00 | 0.00 | 43 | 1013.5 |
| 20260906192425 | 100 | 112 | 1.7 | 2.6 | 0.00 | 0.00 | 0.00 | 42 | 1013.6 |
| 20260906191925 | 100 | 89 | 0.0 | 1.7 | 0.00 | 0.00 | 0.00 | 43 | 1013.6 |
| 20260906191421 | 98 | 333 | 0.0 | 1.7 | 0.00 | 0.00 | 0.00 | 45 | 1013.8 |
| 20260906190920 | 99 | 83 | 2.6 | 5.2 | 0.00 | 0.00 | 0.00 | 44 | 1013.8 |
| 20260906190418 | 99 | 141 | 0.0 | 0.9 | 0.00 | 0.00 | 0.00 | 43 | 1013.9 |
| 20260906185919 | 100 | 153 | 0.9 | 1.7 | 0.00 | 0.00 | 0.00 | 44 | 1014.0 |
| 20260906185418 | 98 | 216 | 0.0 | 5.2 | 0.00 | 0.00 | 0.00 | 45 | 1014.0 |
| 20260906184917 | 98 | 171 | 0.9 | 4.3 | 0.00 | 0.00 | 0.00 | 45 | 1014.0 |
| 20260906184413 | 97 | 260 | 0.9 | 5.2 | 0.00 | 0.00 | 0.00 | 45 | 1013.9 |
| 20260906183908 | 98 | 112 | 0.0 | 3.5 | 0.00 | 0.00 | 0.00 | 45 | 1014.0 |
| 20260906183404 | 97 | 59 | 0.0 | 1.7 | 0.00 | 0.00 | 0.00 | 46 | 1014.1 |
| 20260906182859 | 96 | 71 | 0.9 | 3.5 | 0.00 | 0.00 | 0.00 | 48 | 1014.3 |
| 20260906182355 | 98 | 62 | 0.0 | 1.7 | 0.00 | 0.00 | 0.00 | 45 | 1014.4 |
| 20260906181849 | 98 | 7 | 2.6 | 3.5 | 0.00 | 0.00 | 0.00 | 45 | 1014.3 |
| 20260906181345 | 97 | 276 | 0.0 | 1.7 | 0.00 | 0.00 | 0.00 | 47 | 1014.5 |
| 20260906180841 | 96 | 333 | 0.0 | 0.9 | 0.00 | 0.00 | 0.00 | 48 | 1014.4 |
| 20260906180330 | 97 | 330 | 2.6 | 4.3 | 0.00 | 0.00 | 0.00 | 47 | 1014.6 |
| 20260906175827 | 98 | 46 | 0.9 | 2.6 | 0.00 | 0.00 | 0.00 | 47 | 1014.6 |
| 20260906175323 | 98 | 316 | 0.0 | 1.7 | 0.00 | 0.00 | 0.00 | 47 | 1014.8 |
| 20260906174822 | 99 | 53 | 0.0 | 2.6 | 0.00 | 0.00 | 0.00 | 46 | 1014.7 |
| 20260906174322 | 97 | 212 | 0.9 | 3.5 | 0.00 | 0.00 | 0.00 | 47 | 1015.0 |
| 20260906173817 | 97 | 84 | 0.0 | 1.7 | 0.00 | 0.00 | 0.00 | 47 | 1015.0 |
| 20260906173312 | 97 | 132 | 0.0 | 2.6 | 0.00 | 0.00 | 0.00 | 48 | 1015.0 |
| 20260906172811 | 98 | 56 | 0.0 | 1.7 | 0.00 | 0.00 | 0.00 | 46 | 1015.2 |
| 20260906172307 | 97 | 117 | 0.0 | 1.7 | 0.00 | 0.00 | 0.00 | 48 | 1015.2 |
| 20260906171802 | 96 | 189 | 2.6 | 5.2 | 0.00 | 0.00 | 0.00 | 51 | 1015.2 |
| 20260906171257 | 96 | 211 | 0.9 | 0.9 | 0.00 | 0.00 | 0.00 | 50 | 1015.5 |
| 20260906170753 | 95 | 163 | 1.7 | 1.7 | 0.00 | 0.00 | 0.00 | 51 | 1015.9 |
| 20260906170248 | 96 | 224 | 0.0 | 1.7 | 0.00 | 0.00 | 0.00 | 50 | 1015.6 |
| 20260906165744 | 95 | 32 | 2.6 | 4.3 | 0.00 | 0.00 | 0.00 | 51 | 1015.8 |
| 20260906165243 | 97 | 95 | 0.9 | 1.7 | 0.00 | 0.00 | 0.00 | 50 | 1015.8 |
| 20260906164743 | 95 | 69 | 0.0 | 0.9 | 0.00 | 0.00 | 0.00 | 53 | 1015.8 |
| 20260906164238 | 94 | 354 | 1.7 | 5.2 | 0.00 | 0.00 | 0.00 | 54 | 1015.7 |
| 20260906163734 | 94 | 174 | 0.9 | 1.7 | 0.00 | 0.00 | 0.00 | 53 | 1015.8 |
| 20260906163230 | 92 | 307 | 0.9 | 3.5 | 0.00 | 0.00 | 0.00 | 57 | 1015.9 |
| 20260906162727 | 93 | 356 | 3.5 | 3.5 | 0.00 | 0.00 | 0.00 | 56 | 1015.8 |
| 20260906162222 | 92 | 95 | 0.9 | 1.7 | 0.00 | 0.00 | 0.00 | 57 | 1015.9 |
| 20260906161716 | 92 | 23 | 0.0 | 1.7 | 0.00 | 0.00 | 0.00 | 58 | 1015.9 |
| 20260906161216 | 91 | 343 | 1.7 | 3.5 | 0.00 | 0.00 | 0.00 | 59 | 1015.6 |
| 20260906160715 | 90 | 137 | 0.9 | 2.6 | 0.00 | 0.00 | 0.00 | 60 | 1015.8 |
| 20260906160214 | 91 | 322 | 1.7 | 1.7 | 0.00 | 0.00 | 0.00 | 59 | 1015.9 |
| 20260906155712 | 91 | 154 | 0.0 | 2.6 | 0.00 | 0.00 | 0.00 | 62 | 1015.8 |
| 20260906155207 | 90 | 21 | 0.9 | 1.7 | 0.00 | 0.00 | 0.00 | 62 | 1015.9 |
| 20260906154703 | 89 | 93 | 0.0 | 3.5 | 0.00 | 0.00 | 0.00 | 63 | 1016.0 |
| 20260906154203 | 89 | 283 | 0.9 | 1.7 | 0.00 | 0.00 | 0.00 | 63 | 1015.7 |
| 20260906153701 | 89 | 176 | 0.9 | 1.7 | 0.00 | 0.00 | 0.00 | 64 | 1016.0 |
| 20260906153155 | 89 | 50 | 0.0 | 2.6 | 0.00 | 0.00 | 0.00 | 66 | 1015.6 |
| 20260906152651 | 88 | 305 | 0.9 | 2.6 | 0.00 | 0.00 | 0.00 | 65 | 1015.9 |
| 20260906152145 | 89 | 338 | 0.0 | 1.7 | 0.00 | 0.00 | 0.00 | 65 | 1015.9 |
| 20260906151639 | 88 | 199 | 0.9 | 3.5 | 0.00 | 0.00 | 0.00 | 66 | 1015.8 |
| 20260906151136 | 87 | 66 | 0.9 | 1.7 | 0.00 | 0.00 | 0.00 | 68 | 1015.7 |
| 20260906150630 | 87 | 225 | 0.9 | 1.7 | 0.00 | 0.00 | 0.00 | 68 | 1015.7 |
| 20260906150126 | 88 | 29 | 0.0 | 0.9 | 0.00 | 0.00 | 0.00 | 67 | 1015.8 |
| 20260906145619 | 87 | 146 | 0.9 | 1.7 | 0.00 | 0.00 | 0.00 | 70 | 1015.8 |
| 20260906145113 | 85 | 302 | 0.0 | 1.7 | 0.00 | 0.00 | 0.00 | 71 | 1015.7 |
| 20260906144608 | 85 | 189 | 0.9 | 1.7 | 0.00 | 0.00 | 0.00 | 71 | 1015.8 |
| 20260906144103 | 85 | 254 | 0.0 | 2.6 | 0.00 | 0.00 | 0.00 | 72 | 1015.7 |
| 20260906143558 | 84 | 173 | 0.0 | 0.9 | 0.00 | 0.00 | 0.00 | 72 | 1015.5 |
| 20260906143055 | 84 | 207 | 2.6 | 3.5 | 0.00 | 0.00 | 0.00 | 72 | 1015.7 |
| 20260906142554 | 84 | 342 | 0.0 | 0.9 | 0.00 | 0.00 | 0.00 | 73 | 1015.7 |
| 20260906142050 | 84 | 28 | 0.0 | 1.7 | 0.00 | 0.00 | 0.00 | 74 | 1015.6 |
| 20260906141548 | 83 | 235 | 0.9 | 1.7 | 0.00 | 0.00 | 0.00 | 74 | 1015.6 |
| 20260906141044 | 83 | 96 | 0.0 | 0.9 | 0.00 | 0.00 | 0.00 | 75 | 1015.5 |
| 20260906140543 | 83 | 147 | 0.9 | 1.7 | 0.00 | 0.00 | 0.00 | 76 | 1015.5 |
| 20260906140043 | 83 | 86 | 0.0 | 0.9 | 0.00 | 0.00 | 0.00 | 76 | 1015.6 |
| 20260906135540 | 82 | 235 | 0.0 | 0.9 | 0.00 | 0.00 | 0.00 | 76 | 1015.5 |
| 20260906135036 | 82 | 99 | 0.0 | 0.9 | 0.00 | 0.00 | 0.00 | 77 | 1015.5 |
| 20260906134531 | 82 | 81 | 0.0 | 0.9 | 0.00 | 0.00 | 0.00 | 77 | 1015.4 |
| 20260906134026 | 82 | 89 | 0.0 | 0.9 | 0.00 | 0.00 | 0.00 | 79 | 1015.5 |
| 20260906133522 | 81 | 109 | 0.0 | 0.9 | 0.00 | 0.00 | 0.00 | 79 | 1015.5 |
| 20260906133017 | 80 | 89 | 0.0 | 0.9 | 0.00 | 0.00 | 0.00 | 80 | 1015.2 |
| 20260906132513 | 80 | 229 | 0.0 | 0.0 | 0.00 | 0.00 | 0.00 | 81 | 1015.6 |
| 20260906132008 | 80 | 37 | 0.0 | 0.9 | 0.00 | 0.00 | 0.00 | 81 | 1015.2 |
| 20260906131503 | 80 | 79 | 0.9 | 0.9 | 0.00 | 0.00 | 0.00 | 81 | 1015.4 |
| 20260906130958 | 80 | 13 | 0.0 | 0.0 | 0.00 | 0.00 | 0.00 | 82 | 1015.4 |
| 20260906130458 | 79 | 284 | 0.0 | 0.9 | 0.00 | 0.00 | 0.00 | 83 | 1015.2 |
| 20260906125958 | 79 | 42 | 0.0 | 0.9 | 0.00 | 0.00 | 0.00 | 83 | 1015.2 |
| 20260906125455 | 79 | 25 | 1.7 | 1.7 | 0.00 | 0.00 | 0.00 | 84 | 1015.5 |
| 20260906124955 | 78 | 7 | 0.0 | 1.7 | 0.00 | 0.00 | 0.00 | 84 | 1015.0 |
| 20260906124451 | 78 | 330 | 0.0 | 0.0 | 0.00 | 0.00 | 0.00 | 85 | 1014.9 |
| 20260906123950 | 78 | 53 | 0.0 | 0.0 | 0.00 | 0.00 | 0.00 | 85 | 1014.8 |
| 20260906123444 | 78 | 44 | 0.0 | 1.7 | 0.00 | 0.00 | 0.00 | 85 | 1014.8 |
| 20260906122938 | 77 | 319 | 0.0 | 0.9 | 0.00 | 0.00 | 0.00 | 85 | 1015.0 |
| 20260906122433 | 77 | 129 | 0.0 | 0.9 | 0.00 | 0.00 | 0.00 | 85 | 1014.8 |
| 20260906121930 | 77 | 150 | 0.0 | 0.0 | 0.00 | 0.00 | 0.00 | 85 | 1014.8 |
| 20260906121426 | 77 | 205 | 0.0 | 0.0 | 0.00 | 0.00 | 0.00 | 85 | 1014.8 |
| 20260906120923 | 77 | 217 | 0.0 | 1.7 | 0.00 | 0.00 | 0.00 | 85 | 1014.7 |
| 20260906120418 | 77 | 91 | 0.0 | 0.9 | 0.00 | 0.00 | 0.00 | 85 | 1014.8 |
| 20260906115914 | 77 | 89 | 0.0 | 0.9 | 0.00 | 0.00 | 0.00 | 85 | 1014.8 |
| 20260906115409 | 77 | 98 | 0.0 | 0.0 | 0.00 | 0.00 | 0.00 | 85 | 1014.8 |
| 20260906114908 | 77 | 144 | 0.9 | 0.9 | 0.00 | 0.00 | 0.00 | 85 | 1014.6 |
| 20260906114403 | 77 | 65 | 0.0 | 0.9 | 0.00 | 0.00 | 0.00 | 85 | 1014.6 |
| 20260906113859 | 77 | 124 | 0.0 | 1.7 | 0.00 | 0.00 | 0.00 | 85 | 1014.6 |
| 20260906113358 | 77 | 138 | 0.9 | 0.9 | 0.00 | 0.00 | 0.00 | 86 | 1014.4 |
| 20260906112854 | 77 | 343 | 0.0 | 0.9 | 0.00 | 0.00 | 0.00 | 86 | 1014.5 |
| 20260906112349 | 77 | 9 | 0.9 | 1.7 | 0.00 | 0.00 | 0.00 | 86 | 1014.4 |
| 20260906111843 | 77 | 322 | 0.0 | 0.9 | 0.00 | 0.00 | 0.00 | 86 | 1014.5 |
| 20260906111337 | 77 | 345 | 0.0 | 0.9 | 0.00 | 0.00 | 0.00 | 85 | 1014.4 |
| 20260906110833 | 77 | 171 | 0.9 | 0.9 | 0.00 | 0.00 | 0.00 | 85 | 1014.2 |
| 20260906110329 | 77 | 269 | 0.0 | 0.9 | 0.00 | 0.00 | 0.00 | 85 | 1014.2 |
| 20260906105827 | 78 | 40 | 0.0 | 0.9 | 0.00 | 0.00 | 0.00 | 85 | 1014.3 |
| 20260906105323 | 78 | 224 | 0.0 | 0.9 | 0.00 | 0.00 | 0.00 | 84 | 1014.3 |
| 20260906104819 | 78 | 99 | 0.0 | 0.0 | 0.00 | 0.00 | 0.00 | 84 | 1014.2 |
| 20260906104318 | 78 | 2 | 0.0 | 1.7 | 0.00 | 0.00 | 0.00 | 84 | 1014.3 |
| 20260906103816 | 78 | 329 | 0.0 | 0.9 | 0.00 | 0.00 | 0.00 | 84 | 1014.2 |
| 20260906103315 | 78 | 346 | 0.0 | 0.9 | 0.00 | 0.00 | 0.00 | 84 | 1014.2 |
| 20260906102811 | 78 | 343 | 0.0 | 0.0 | 0.00 | 0.00 | 0.00 | 83 | 1014.1 |
| 20260906102309 | 78 | 113 | 0.0 | 0.9 | 0.00 | 0.00 | 0.00 | 83 | 1014.1 |
| 20260906101806 | 78 | 49 | 0.0 | 0.9 | 0.00 | 0.00 | 0.00 | 83 | 1014.1 |
| 20260906101306 | 78 | 347 | 0.0 | 0.9 | 0.00 | 0.00 | 0.00 | 83 | 1014.0 |
| 20260906100801 | 78 | 356 | 0.9 | 1.7 | 0.00 | 0.00 | 0.00 | 83 | 1014.0 |
| 20260906100300 | 78 | 347 | 0.0 | 0.9 | 0.00 | 0.00 | 0.00 | 83 | 1014.0 |
| 20260906095756 | 78 | 37 | 0.0 | 0.0 | 0.00 | 0.00 | 0.00 | 83 | 1013.6 |
| 20260906095251 | 78 | 37 | 0.0 | 0.0 | 0.00 | 0.00 | 0.00 | 83 | 1013.9 |
| 20260906094744 | 78 | 25 | 0.9 | 0.9 | 0.00 | 0.00 | 0.00 | 82 | 1013.9 |
| 20260906094239 | 79 | 329 | 0.0 | 0.9 | 0.00 | 0.00 | 0.00 | 81 | 1013.7 |
| 20260906093736 | 79 | 13 | 0.0 | 0.9 | 0.00 | 0.00 | 0.00 | 81 | 1013.6 |
| 20260906093231 | 79 | 326 | 0.0 | 1.7 | 0.00 | 0.00 | 0.00 | 81 | 1013.5 |
| 20260906092726 | 79 | 322 | 0.0 | 0.0 | 0.00 | 0.00 | 0.00 | 81 | 1013.5 |
| 20260906092226 | 79 | 217 | 0.0 | 0.0 | 0.00 | 0.00 | 0.00 | 80 | 1013.5 |
| 20260906091722 | 79 | 75 | 0.0 | 0.0 | 0.00 | 0.00 | 0.00 | 80 | 1013.6 |
| 20260906091212 | 79 | 89 | 0.0 | 0.0 | 0.00 | 0.00 | 0.00 | 80 | 1013.5 |
| 20260906090708 | 79 | 228 | 0.0 | 0.0 | 0.00 | 0.00 | 0.00 | 80 | 1013.5 |
| 20260906090208 | 79 | 208 | 0.0 | 0.0 | 0.00 | 0.00 | 0.00 | 80 | 1013.4 |
| 20260906085707 | 79 | 224 | 0.0 | 0.0 | 0.00 | 0.00 | 0.00 | 80 | 1013.4 |
| 20260906085206 | 80 | 202 | 0.0 | 0.0 | 0.00 | 0.00 | 0.00 | 80 | 1013.4 |
| 20260906084700 | 80 | 202 | 0.0 | 0.0 | 0.00 | 0.00 | 0.00 | 79 | 1013.5 |
| 20260906084155 | 80 | 202 | 0.0 | 0.0 | 0.00 | 0.00 | 0.00 | 78 | 1013.5 |
| 20260906083650 | 80 | 198 | 1.7 | 1.7 | 0.00 | 0.00 | 0.00 | 78 | 1013.5 |
| 20260906083145 | 80 | 201 | 1.7 | 2.6 | 0.00 | 0.00 | 0.00 | 78 | 1013.4 |
| 20260906082640 | 80 | 207 | 0.0 | 1.7 | 0.00 | 0.00 | 0.00 | 78 | 1013.5 |
| 20260906082136 | 80 | 218 | 0.0 | 3.5 | 0.00 | 0.00 | 0.00 | 78 | 1013.5 |
| 20260906081632 | 80 | 173 | 0.0 | 1.7 | 0.00 | 0.00 | 0.00 | 78 | 1013.6 |
| 20260906081126 | 80 | 154 | 0.0 | 0.0 | 0.00 | 0.00 | 0.00 | 78 | 1013.4 |
| 20260906080623 | 80 | 154 | 0.0 | 0.9 | 0.00 | 0.00 | 0.00 | 78 | 1013.6 |
| 20260906080119 | 81 | 186 | 0.0 | 0.0 | 0.00 | 0.00 | 0.00 | 77 | 1013.6 |
| 20260906075613 | 81 | 186 | 0.0 | 1.7 | 0.00 | 0.00 | 0.00 | 77 | 1013.6 |
| 20260906075108 | 81 | 211 | 1.7 | 1.7 | 0.00 | 0.00 | 0.00 | 77 | 1013.5 |
| 20260906074603 | 81 | 166 | 0.0 | 3.5 | 0.00 | 0.00 | 0.00 | 76 | 1013.4 |
| 20260906074102 | 81 | 181 | 0.9 | 0.9 | 0.00 | 0.00 | 0.00 | 76 | 1013.7 |
| 20260906073557 | 81 | 211 | 1.7 | 3.5 | 0.00 | 0.00 | 0.00 | 76 | 1013.6 |
| 20260906073052 | 81 | 204 | 2.6 | 2.6 | 0.00 | 0.00 | 0.00 | 76 | 1013.7 |
| 20260906072547 | 82 | 196 | 2.6 | 4.3 | 0.00 | 0.00 | 0.00 | 76 | 1013.7 |
| 20260906072043 | 82 | 205 | 2.6 | 3.5 | 0.00 | 0.00 | 0.00 | 76 | 1013.5 |
| 20260906071539 | 82 | 162 | 0.0 | 3.5 | 0.00 | 0.00 | 0.00 | 76 | 1013.9 |
| 20260906071034 | 82 | 110 | 0.0 | 3.5 | 0.00 | 0.00 | 0.00 | 75 | 1013.8 |
| 20260906070531 | 82 | 142 | 0.0 | 3.5 | 0.00 | 0.00 | 0.00 | 75 | 1013.9 |
| 20260906070026 | 82 | 103 | 0.0 | 3.5 | 0.00 | 0.00 | 0.00 | 75 | 1013.9 |
| 20260906065525 | 82 | 201 | 2.6 | 5.2 | 0.00 | 0.00 | 0.00 | 75 | 1014.0 |
| 20260906065021 | 82 | 206 | 0.9 | 2.6 | 0.00 | 0.00 | 0.00 | 75 | 1014.1 |
| 20260906064517 | 82 | 150 | 0.0 | 2.6 | 0.00 | 0.00 | 0.00 | 75 | 1013.9 |
| 20260906064016 | 82 | 140 | 0.0 | 2.6 | 0.00 | 0.00 | 0.00 | 75 | 1014.0 |
| 20260906063513 | 83 | 151 | 0.9 | 3.5 | 0.00 | 0.00 | 0.00 | 75 | 1014.2 |
| 20260906063008 | 83 | 89 | 0.0 | 1.7 | 0.00 | 0.00 | 0.00 | 75 | 1014.3 |
| 20260906062502 | 83 | 186 | 0.0 | 2.6 | 0.00 | 0.00 | 0.00 | 74 | 1014.1 |
| 20260906061957 | 83 | 195 | 2.6 | 2.6 | 0.00 | 0.00 | 0.00 | 74 | 1014.3 |
| 20260906061453 | 83 | 194 | 0.9 | 2.6 | 0.00 | 0.00 | 0.00 | 74 | 1014.2 |
| 20260906060947 | 83 | 195 | 3.5 | 3.5 | 0.00 | 0.00 | 0.00 | 75 | 1013.9 |
| 20260906060444 | 83 | 191 | 1.7 | 2.6 | 0.00 | 0.00 | 0.00 | 74 | 1014.3 |
| 20260906055940 | 83 | 174 | 0.0 | 2.6 | 0.00 | 0.00 | 0.00 | 74 | 1014.1 |
| 20260906055436 | 83 | 196 | 0.0 | 2.6 | 0.00 | 0.00 | 0.00 | 74 | 1014.0 |
| 20260906054931 | 84 | 195 | 0.0 | 2.6 | 0.00 | 0.00 | 0.00 | 74 | 1014.0 |
| 20260906054426 | 84 | 176 | 1.7 | 1.7 | 0.00 | 0.00 | 0.00 | 74 | 1014.0 |
| 20260906053922 | 84 | 185 | 0.9 | 1.7 | 0.00 | 0.00 | 0.00 | 73 | 1013.9 |
| 20260906053418 | 84 | 185 | 0.9 | 1.7 | 0.00 | 0.00 | 0.00 | 73 | 1014.0 |
| 20260906052913 | 84 | 182 | 1.7 | 1.7 | 0.00 | 0.00 | 0.00 | 73 | 1013.9 |
| 20260906052409 | 84 | 172 | 0.0 | 2.6 | 0.00 | 0.00 | 0.00 | 73 | 1013.8 |
| 20260906051906 | 84 | 205 | 1.7 | 3.5 | 0.00 | 0.00 | 0.00 | 73 | 1014.0 |
| 20260906051401 | 84 | 224 | 0.0 | 2.6 | 0.00 | 0.00 | 0.00 | 73 | 1013.7 |
| 20260906050856 | 84 | 180 | 0.0 | 1.7 | 0.00 | 0.00 | 0.00 | 72 | 1013.7 |
| 20260906050350 | 84 | 207 | 0.9 | 1.7 | 0.00 | 0.00 | 0.00 | 72 | 1013.9 |
| 20260906045849 | 84 | 235 | 0.0 | 2.6 | 0.00 | 0.00 | 0.00 | 72 | 1014.0 |
| 20260906045343 | 85 | 166 | 0.0 | 3.5 | 0.00 | 0.00 | 0.00 | 72 | 1013.9 |
| 20260906044840 | 85 | 198 | 4.3 | 6.1 | 0.00 | 0.00 | 0.00 | 72 | 1014.1 |
| 20260906044335 | 85 | 206 | 0.9 | 2.6 | 0.00 | 0.00 | 0.00 | 72 | 1014.1 |
| 20260906043831 | 85 | 104 | 0.0 | 0.9 | 0.00 | 0.00 | 0.00 | 71 | 1014.0 |
| 20260906043327 | 85 | 142 | 0.0 | 1.7 | 0.00 | 0.00 | 0.00 | 71 | 1014.0 |
| 20260906042826 | 85 | 68 | 0.0 | 0.9 | 0.00 | 0.00 | 0.00 | 71 | 1013.9 |
| 20260906042320 | 85 | 193 | 1.7 | 3.5 | 0.00 | 0.00 | 0.00 | 70 | 1014.0 |
| 20260906041816 | 85 | 89 | 0.0 | 0.0 | 0.00 | 0.00 | 0.00 | 70 | 1014.0 |
| 20260906041311 | 86 | 229 | 0.0 | 3.5 | 0.00 | 0.00 | 0.00 | 70 | 1013.7 |
| 20260906040805 | 86 | 248 | 0.0 | 3.5 | 0.00 | 0.00 | 0.00 | 70 | 1013.8 |
| 20260906040301 | 86 | 203 | 1.7 | 3.5 | 0.00 | 0.00 | 0.00 | 69 | 1013.7 |
| 20260906035756 | 86 | 204 | 0.0 | 3.5 | 0.00 | 0.00 | 0.00 | 69 | 1013.8 |
| 20260906035251 | 86 | 167 | 0.9 | 3.5 | 0.00 | 0.00 | 0.00 | 69 | 1013.7 |
| 20260906034746 | 86 | 176 | 0.0 | 0.9 | 0.00 | 0.00 | 0.00 | 68 | 1013.7 |
| 20260906034241 | 86 | 201 | 0.0 | 1.7 | 0.00 | 0.00 | 0.00 | 68 | 1013.7 |
| 20260906033737 | 86 | 230 | 0.0 | 1.7 | 0.00 | 0.00 | 0.00 | 67 | 1014.0 |
| 20260906033236 | 87 | 129 | 0.0 | 1.7 | 0.00 | 0.00 | 0.00 | 67 | 1013.7 |
| 20260906032733 | 87 | 186 | 2.6 | 3.5 | 0.00 | 0.00 | 0.00 | 66 | 1013.9 |
| 20260906032232 | 87 | 246 | 0.0 | 1.7 | 0.00 | 0.00 | 0.00 | 66 | 1013.9 |
| 20260906031727 | 87 | 212 | 2.6 | 3.5 | 0.00 | 0.00 | 0.00 | 66 | 1013.9 |
| 20260906031223 | 87 | 109 | 0.0 | 2.6 | 0.00 | 0.00 | 0.00 | 66 | 1014.0 |
| 20260906030723 | 87 | 164 | 0.0 | 1.7 | 0.00 | 0.00 | 0.00 | 66 | 1013.7 |
| 20260906030218 | 87 | 129 | 0.0 | 1.7 | 0.00 | 0.00 | 0.00 | 65 | 1014.0 |
| 20260906025717 | 87 | 149 | 0.0 | 1.7 | 0.00 | 0.00 | 0.00 | 65 | 1013.8 |
| 20260906025212 | 87 | 212 | 1.7 | 1.7 | 0.00 | 0.00 | 0.00 | 65 | 1014.0 |
| 20260906024712 | 87 | 186 | 0.9 | 1.7 | 0.00 | 0.00 | 0.00 | 65 | 1013.8 |
| 20260906024211 | 87 | 130 | 0.9 | 1.7 | 0.00 | 0.00 | 0.00 | 64 | 1013.9 |
| 20260906023706 | 87 | 139 | 0.0 | 1.7 | 0.00 | 0.00 | 0.00 | 64 | 1013.6 |
| 20260906023201 | 87 | 126 | 0.9 | 1.7 | 0.00 | 0.00 | 0.00 | 64 | 1013.5 |
| 20260906022656 | 87 | 135 | 0.0 | 1.7 | 0.00 | 0.00 | 0.00 | 64 | 1013.3 |
| 20260906022152 | 87 | 135 | 0.0 | 0.9 | 0.00 | 0.00 | 0.00 | 63 | 1013.3 |
| 20260906021647 | 88 | 186 | 0.0 | 1.7 | 0.00 | 0.00 | 0.00 | 63 | 1013.4 |
| 20260906021146 | 88 | 106 | 0.0 | 1.7 | 0.00 | 0.00 | 0.00 | 63 | 1013.3 |
| 20260906020641 | 88 | 107 | 0.0 | 1.7 | 0.00 | 0.00 | 0.00 | 63 | 1013.1 |
| 20260906020136 | 88 | 131 | 0.9 | 1.7 | 0.00 | 0.00 | 0.00 | 62 | 1012.9 |
| 20260906015630 | 88 | 143 | 1.7 | 1.7 | 0.00 | 0.00 | 0.00 | 62 | 1013.0 |
| 20260906015128 | 88 | 135 | 0.0 | 1.7 | 0.00 | 0.00 | 0.00 | 62 | 1012.9 |
| 20260906014623 | 88 | 141 | 1.7 | 3.5 | 0.00 | 0.00 | 0.00 | 62 | 1013.0 |
| 20260906014120 | 88 | 149 | 0.9 | 3.5 | 0.00 | 0.00 | 0.00 | 61 | 1012.7 |
| 20260906013620 | 89 | 197 | 0.0 | 2.6 | 0.00 | 0.00 | 0.00 | 61 | 1012.8 |
| 20260906013115 | 89 | 149 | 0.9 | 2.6 | 0.00 | 0.00 | 0.00 | 61 | 1012.6 |
| 20260906012610 | 89 | 160 | 0.9 | 4.3 | 0.00 | 0.00 | 0.00 | 61 | 1012.6 |
| 20260906012105 | 89 | 152 | 0.0 | 5.2 | 0.00 | 0.00 | 0.00 | 61 | 1012.5 |
| 20260906011601 | 89 | 153 | 3.5 | 3.5 | 0.00 | 0.00 | 0.00 | 60 | 1012.3 |
| 20260906011100 | 90 | 122 | 2.6 | 3.5 | 0.00 | 0.00 | 0.00 | 58 | 1012.4 |
| 20260906010556 | 91 | 128 | 0.9 | 4.3 | 0.00 | 0.00 | 0.00 | 57 | 1012.5 |
| 20260906010052 | 91 | 144 | 0.0 | 2.6 | 0.00 | 0.00 | 0.00 | 56 | 1012.5 |
| 20260906005546 | 91 | 126 | 0.0 | 3.5 | 0.00 | 0.00 | 0.00 | 56 | 1012.3 |
| 20260906005045 | 91 | 109 | 0.9 | 1.7 | 0.00 | 0.00 | 0.00 | 55 | 1012.4 |
| 20260906004544 | 92 | 125 | 2.6 | 3.5 | 0.00 | 0.00 | 0.00 | 54 | 1012.3 |
| 20260906004039 | 93 | 125 | 1.7 | 2.6 | 0.00 | 0.00 | 0.00 | 53 | 1012.0 |
| 20260906003534 | 93 | 142 | 2.6 | 3.5 | 0.00 | 0.00 | 0.00 | 52 | 1012.1 |
| 20260906003030 | 96 | 124 | 2.6 | 4.3 | 0.00 | 0.00 | 0.00 | 47 | 1012.0 |
| 20260906002525 | 96 | 69 | 1.7 | 1.7 | 0.00 | 0.00 | 0.00 | 44 | 1012.0 |
| 20260906002020 | 96 | 117 | 0.0 | 2.6 | 0.00 | 0.00 | 0.00 | 43 | 1011.9 |
| 20260906001515 | 97 | 124 | 0.9 | 1.7 | 0.00 | 0.00 | 0.00 | 43 | 1011.9 |
| 20260906001010 | 97 | 259 | 0.0 | 1.7 | 0.00 | 0.00 | 0.00 | 43 | 1012.0 |
| 20260906000506 | 97 | 198 | 0.0 | 1.7 | 0.00 | 0.00 | 0.00 | 43 | 1011.9 |
| 20260906000006 | 98 | 111 | 0.0 | 1.7 | 0.00 | 0.00 | 0.00 | 42 | 1011.7 |
| 20260905235459 | 98 | 189 | 0.0 | 1.7 | 0.00 | 0.00 | 0.00 | 42 | 1011.8 |
| 20260905234954 | 99 | 118 | 1.7 | 1.7 | 0.00 | 0.00 | 0.00 | 41 | 1011.9 |
| 20260905234445 | 99 | 119 | 0.0 | 1.7 | 0.00 | 0.00 | 0.00 | 40 | 1011.7 |
| 20260905233944 | 99 | 160 | 0.0 | 1.7 | 0.00 | 0.00 | 0.00 | 40 | 1011.6 |